Hovedside
METAR-TAF:

METAR-TAF

Lufthavner :

Gibraltar lufthavn

Gibraltar, Gibraltar

breddegrad: 36-09N, lengdegrad: 005-21W, høyde over havet: 5 m

Gjeldene værobservasjon

Denne rapporten ble laget for 59 minutter siden, klokken 03:50 UTC
Vind 7 kt fra Nordøst
Temperatur 19°C
Luftfuktighet 94%
Trykk 1018 hPa
Sikt 10 km eller mer
Få skyer i en høyde av 500 ft
Spredte skyer i en høyde av 1000 ft
Brutte skyer i en høyde av 2200 ft

METAR: LXGB 220350Z 04007KT 9999 FEW005 SCT010 BKN022 19/18 Q1018

Tid: 06:49 (04:49 UTC)

Varsel

Denne rapporten ble laget for 12 timer og 20 minutter siden, klokken 16:29 UTC
Varsel gyldig fra 21. klokken 18 UTC til 21. klokken 22 UTC
Vind 10 kt fra Øst-nordøst
Sikt 10 km eller mer
Spredte skyer i en høyde av 3000 ft
Sannsynlighet 40% :
Midlertidig
fra 21. klokken 18 UTC til 21. klokken 22 UTC
Sikt: 4000 m
Spredte skyer i en høyde av 1800 ft, Tårnskyer (cumulus).
regnbyger

TAF: LXGB 211629Z 2118/2122 07010KT 9999 SCT030 PROB40 TEMPO 2118/2122 4000 SHRA SCT018TCU

Værobservasjoner og værvarsel for over 4000 flyplasser (METAR- og TAF-rapporter).

Tilgjengelige stasjoner er representert av de røde og gule prikkene på kartet.

Hold musepekeren over prikken for å se navnet på stasjonen.

Klikk så for å se værobservasjoner og -varsler.

For å forandre kartet kan du klikke på den grønne knappen med svart kryss for å zoome inn, på den grønne knappen med strek for å zoome ut, eller på de grønne pilene for å se tilstøtende kart.


METAR-TAF: